createdAt,value
2023-04-16T00:00:57.416Z,96298.26
2023-04-16T00:03:44.373Z,96297.70
2023-04-16T00:06:32.273Z,96300.96
2023-04-16T00:09:19.593Z,96302.36
2023-04-16T00:12:06.724Z,96299.63
2023-04-16T00:14:53.631Z,96300.69
2023-04-16T00:17:40.546Z,96298.48
2023-04-16T00:20:27.749Z,96300.06
2023-04-16T00:23:14.668Z,96302.30
2023-04-16T00:26:01.334Z,96303.33
2023-04-16T00:28:47.876Z,96302.60
2023-04-16T00:31:35.092Z,96301.98
2023-04-16T00:34:23.335Z,96300.27
2023-04-16T00:37:10.558Z,96306.13
2023-04-16T00:39:57.579Z,96310.67
2023-04-16T00:42:45.937Z,96311.33
2023-04-16T00:45:33.281Z,96312.88
2023-04-16T00:48:21.591Z,96320.14
2023-04-16T00:51:09.231Z,96318.38
2023-04-16T00:53:57.510Z,96320.64
2023-04-16T00:56:45.204Z,96321.70
2023-04-16T00:59:33.868Z,96315.16
2023-04-16T01:02:20.902Z,96317.80
2023-04-16T01:05:10.858Z,96314.02
2023-04-16T01:08:00.996Z,96318.73
2023-04-16T01:10:48.182Z,96318.01
2023-04-16T01:13:39.326Z,96321.14
2023-04-16T01:16:27.098Z,96321.46
2023-04-16T01:19:14.235Z,96322.42
2023-04-16T01:22:01.368Z,96321.27
2023-04-16T01:24:48.166Z,96321.71
2023-04-16T01:27:35.592Z,96318.61
2023-04-16T01:30:22.293Z,96313.55
2023-04-16T01:33:18.647Z,96317.84
2023-04-16T01:36:05.970Z,96316.30
2023-04-16T01:38:53.291Z,96312.69
2023-04-16T01:41:40.465Z,96309.08
2023-04-16T01:44:28.162Z,96307.42
2023-04-16T01:47:15.672Z,96311.31
2023-04-16T01:50:04.216Z,96312.30
2023-04-16T01:55:43.173Z,96311.09
2023-04-16T01:58:31.514Z,96310.46
2023-04-16T02:01:19.337Z,96310.24
2023-04-16T02:04:07.740Z,96307.10
2023-04-16T02:06:54.728Z,96307.20
2023-04-16T02:09:41.637Z,96305.21
2023-04-16T02:12:28.948Z,96300.33
2023-04-16T02:15:16.566Z,96302.73
2023-04-16T02:18:04.288Z,96308.59
2023-04-16T02:20:51.840Z,96309.63
2023-04-16T02:23:41.202Z,96308.49
2023-04-16T02:26:29.351Z,96309.68
2023-04-16T02:29:19.744Z,96307.48
2023-04-16T02:32:12.670Z,96309.01
2023-04-16T02:35:01.036Z,96306.51
2023-04-16T02:37:47.854Z,96308.10
2023-04-16T02:40:36.107Z,96309.41
2023-04-16T02:43:23.022Z,96311.30
2023-04-16T02:46:09.853Z,96308.08
2023-04-16T02:48:56.876Z,96312.63
2023-04-16T02:51:43.767Z,96311.84
2023-04-16T02:54:30.308Z,96312.20
2023-04-16T02:57:17.069Z,96318.71
2023-04-16T03:00:05.257Z,96315.30
2023-04-16T03:02:52.180Z,96314.67
2023-04-16T03:05:40.318Z,96310.86
2023-04-16T03:08:27.904Z,96311.39
2023-04-16T03:11:14.810Z,96313.64
2023-04-16T03:14:01.640Z,96312.69
2023-04-16T03:16:49.048Z,96313.55
2023-04-16T03:19:35.726Z,96315.45
2023-04-16T03:22:22.778Z,96316.48
2023-04-16T03:25:09.888Z,96318.56
2023-04-16T03:27:56.600Z,96319.08
2023-04-16T03:30:43.721Z,96322.17
2023-04-16T03:33:30.940Z,96319.23
2023-04-16T03:36:17.751Z,96322.19
2023-04-16T03:39:04.681Z,96322.91
2023-04-16T03:41:51.837Z,96325.95
2023-04-16T03:44:38.485Z,96330.91
2023-04-16T03:47:25.930Z,96335.33
2023-04-16T03:50:14.878Z,96333.77
2023-04-16T03:53:02.325Z,96339.59
2023-04-16T03:55:53.136Z,96336.93
2023-04-16T03:58:40.439Z,96336.64
2023-04-16T04:01:28.071Z,96339.77
2023-04-16T04:04:15.526Z,96338.09
2023-04-16T04:07:02.374Z,96341.96
2023-04-16T04:09:49.536Z,96348.85
2023-04-16T04:12:36.335Z,96353.79
2023-04-16T04:15:23.451Z,96349.25
2023-04-16T04:18:10.874Z,96351.84
2023-04-16T04:20:58.097Z,96355.23
2023-04-16T04:23:47.781Z,96356.24
2023-04-16T04:26:34.737Z,96362.96
2023-04-16T04:29:22.134Z,96363.33
2023-04-16T04:32:09.238Z,96363.08
2023-04-16T04:34:56.430Z,96360.80
2023-04-16T04:37:43.777Z,96362.95
2023-04-16T04:40:34.783Z,96364.59
2023-04-16T04:43:24.169Z,96367.52
2023-04-16T04:46:11.846Z,96371.50
2023-04-16T04:49:01.050Z,96367.72
2023-04-16T04:51:48.993Z,96369.56
2023-04-16T04:54:35.492Z,96373.85
2023-04-16T04:57:22.476Z,96372.65
2023-04-16T05:00:12.196Z,96372.81
2023-04-16T05:03:06.780Z,96373.77
2023-04-16T05:05:54.421Z,96374.09
2023-04-16T05:08:41.435Z,96375.54
2023-04-16T05:11:28.135Z,96374.63
2023-04-16T05:14:15.051Z,96377.88
2023-04-16T05:17:02.142Z,96376.48
2023-04-16T05:19:49.707Z,96376.98
2023-04-16T05:22:36.515Z,96379.02
2023-04-16T05:25:24.052Z,96383.88
2023-04-16T05:28:11.365Z,96385.95
2023-04-16T05:30:58.391Z,96384.14
2023-04-16T05:33:45.162Z,96385.09
2023-04-16T05:36:31.892Z,96389.61
2023-04-16T05:39:19.930Z,96387.86
2023-04-16T05:42:06.664Z,96383.70
2023-04-16T05:44:53.770Z,96385.40
2023-04-16T05:47:40.729Z,96382.64
2023-04-16T05:50:27.960Z,96377.31
2023-04-16T05:53:15.222Z,96376.77
2023-04-16T05:56:02.064Z,96382.67
2023-04-16T05:58:49.057Z,96382.42
2023-04-16T06:01:36.168Z,96381.63
2023-04-16T06:04:23.488Z,96385.20
2023-04-16T06:07:10.393Z,96384.48
2023-04-16T06:09:57.440Z,96385.10
2023-04-16T06:12:44.335Z,96386.45
2023-04-16T06:15:31.238Z,96384.66
2023-04-16T06:18:18.090Z,96379.39
2023-04-16T06:21:05.076Z,96381.20
2023-04-16T06:23:51.991Z,96382.31
2023-04-16T06:26:39.623Z,96386.23
2023-04-16T06:29:37.051Z,96388.02
2023-04-16T06:32:28.350Z,96386.41
2023-04-16T06:35:15.525Z,96385.48
2023-04-16T06:38:02.119Z,96390.07
2023-04-16T06:40:49.758Z,96387.05
2023-04-16T06:43:37.092Z,96385.08
2023-04-16T06:46:24.043Z,96384.70
2023-04-16T06:49:11.169Z,96387.05
2023-04-16T06:51:58.744Z,96383.02
2023-04-16T06:54:45.644Z,96384.41
2023-04-16T06:57:32.667Z,96389.86
2023-04-16T07:00:19.584Z,96386.12
2023-04-16T07:03:06.560Z,96387.75
2023-04-16T07:05:53.510Z,96386.73
2023-04-16T07:08:40.724Z,96381.92
2023-04-16T07:11:27.486Z,96380.32
2023-04-16T07:14:14.348Z,96382.48
2023-04-16T07:17:01.269Z,96384.92
2023-04-16T07:19:48.075Z,96383.86
2023-04-16T07:22:34.889Z,96386.11
2023-04-16T07:25:21.924Z,96384.12
2023-04-16T07:28:08.815Z,96386.91
2023-04-16T07:30:56.352Z,96389.00
2023-04-16T07:33:43.271Z,96388.03
2023-04-16T07:36:30.174Z,96388.62
2023-04-16T07:39:17.292Z,96387.22
2023-04-16T07:42:03.999Z,96380.89
2023-04-16T07:44:50.803Z,96380.73
2023-04-16T07:47:37.959Z,96383.06
2023-04-16T07:50:25.555Z,96379.82
2023-04-16T07:53:12.362Z,96378.92
2023-04-16T07:55:59.075Z,96375.55
2023-04-16T07:58:45.993Z,96371.75
2023-04-16T08:01:33.303Z,96369.02
2023-04-16T08:04:25.753Z,96369.57
2023-04-16T08:07:13.391Z,96368.59
2023-04-16T08:10:00.616Z,96369.52
2023-04-16T08:12:47.625Z,96366.14
2023-04-16T08:15:34.824Z,96364.92
2023-04-16T08:18:21.775Z,96359.38
2023-04-16T08:21:08.984Z,96356.67
2023-04-16T08:23:56.216Z,96355.77
2023-04-16T08:26:43.836Z,96357.94
2023-04-16T08:29:31.391Z,96356.42
2023-04-16T08:32:17.977Z,96354.41
2023-04-16T08:35:05.534Z,96354.09
2023-04-16T08:37:53.948Z,96357.55
2023-04-16T08:40:42.051Z,96359.60
2023-04-16T08:43:32.853Z,96358.13
2023-04-16T08:46:22.951Z,96359.76
2023-04-16T08:49:18.156Z,96359.64
2023-04-16T08:52:08.379Z,96359.77
2023-04-16T08:55:00.715Z,96359.32
2023-04-16T08:57:49.196Z,96359.48
2023-04-16T09:00:37.917Z,96359.65
2023-04-16T09:03:25.554Z,96359.98
2023-04-16T09:09:05.641Z,96360.31
2023-04-16T09:11:54.185Z,96363.83
2023-04-16T09:14:43.095Z,96361.34
2023-04-16T09:17:30.259Z,96356.55
2023-04-16T09:20:17.131Z,96355.90
2023-04-16T09:23:04.805Z,96352.59
2023-04-16T09:25:51.690Z,96353.98
2023-04-16T09:28:49.691Z,96352.37
2023-04-16T09:31:36.541Z,96353.62
2023-04-16T09:34:23.397Z,96354.79
2023-04-16T09:37:19.861Z,96355.84
2023-04-16T09:40:07.295Z,96352.29
2023-04-16T09:42:57.704Z,96350.86
2023-04-16T09:45:51.190Z,96343.91
2023-04-16T09:48:38.594Z,96342.73
2023-04-16T09:51:27.123Z,96339.64
2023-04-16T09:54:14.210Z,96336.29
2023-04-16T09:57:01.265Z,96336.34
2023-04-16T09:59:52.676Z,96334.93
2023-04-16T10:02:42.829Z,96335.14
2023-04-16T10:05:30.085Z,96335.00
2023-04-16T10:08:17.515Z,96330.38
2023-04-16T10:11:05.657Z,96328.48
2023-04-16T10:13:52.882Z,96323.94
2023-04-16T10:16:41.753Z,96320.84
2023-04-16T10:19:29.274Z,96317.83
2023-04-16T10:22:16.769Z,96314.52
2023-04-16T10:25:04.315Z,96311.55
2023-04-16T10:27:51.357Z,96308.95
2023-04-16T10:30:39.748Z,96309.66
2023-04-16T10:33:33.761Z,96308.40
2023-04-16T10:36:26.546Z,96308.98
2023-04-16T10:39:16.898Z,96310.40
2023-04-16T10:42:09.073Z,96310.70
2023-04-16T10:45:00.382Z,96310.02
2023-04-16T10:47:47.389Z,96302.79
2023-04-16T10:50:36.200Z,96300.33
2023-04-16T10:53:28.980Z,96302.19
2023-04-16T10:56:23.830Z,96299.48
2023-04-16T10:59:12.186Z,96299.66
2023-04-16T11:02:03.915Z,96295.80
2023-04-16T11:04:51.439Z,96293.08
2023-04-16T11:07:49.577Z,96292.13
2023-04-16T11:10:39.648Z,96293.59
2023-04-16T11:13:26.818Z,96296.08
2023-04-16T11:16:15.834Z,96295.79
2023-04-16T11:19:03.119Z,96292.98
2023-04-16T11:21:51.043Z,96289.54
2023-04-16T11:24:40.478Z,96289.41
2023-04-16T11:27:27.572Z,96286.75
2023-04-16T11:30:14.709Z,96286.42
2023-04-16T11:33:11.731Z,96285.80
2023-04-16T11:35:59.282Z,96284.36
2023-04-16T11:38:46.096Z,96282.38
2023-04-16T11:41:32.736Z,96275.30
2023-04-16T11:44:21.978Z,96272.23
2023-04-16T11:47:08.702Z,96266.52
2023-04-16T11:49:56.299Z,96263.20
2023-04-16T11:52:43.114Z,96260.89
2023-04-16T11:55:30.539Z,96258.54
2023-04-16T11:58:17.241Z,96252.04
2023-04-16T12:01:04.878Z,96248.27
2023-04-16T12:04:02.512Z,96241.33
2023-04-16T12:07:08.405Z,96240.44
2023-04-16T12:10:07.780Z,96240.48
2023-04-16T12:12:55.340Z,96230.98
2023-04-16T12:15:47.375Z,96229.23
2023-04-16T12:18:34.318Z,96230.88
2023-04-16T12:21:21.418Z,96231.58
2023-04-16T12:24:10.548Z,96223.55
2023-04-16T12:26:57.672Z,96223.30
2023-04-16T12:29:44.372Z,96219.37
2023-04-16T12:32:31.315Z,96218.16
2023-04-16T12:35:31.892Z,96215.85
2023-04-16T12:38:19.573Z,96207.23
2023-04-16T12:41:07.097Z,96204.09
2023-04-16T12:44:15.021Z,96203.34
2023-04-16T12:47:02.261Z,96202.43
2023-04-16T12:49:49.444Z,96194.11
2023-04-16T12:52:36.716Z,96191.55
2023-04-16T12:55:23.475Z,96187.23
2023-04-16T12:58:12.333Z,96186.50
2023-04-16T13:01:00.183Z,96182.48
2023-04-16T13:03:47.588Z,96181.78
2023-04-16T13:06:36.974Z,96175.36
2023-04-16T13:09:25.014Z,96176.77
2023-04-16T13:12:12.500Z,96171.92
2023-04-16T13:14:59.376Z,96169.85
2023-04-16T13:17:46.440Z,96167.86
2023-04-16T13:20:33.688Z,96167.00
2023-04-16T13:23:20.609Z,96170.14
2023-04-16T13:26:07.309Z,96172.30
2023-04-16T13:28:54.131Z,96170.80
2023-04-16T13:31:41.458Z,96173.41
2023-04-16T13:34:28.465Z,96180.12
2023-04-16T13:37:15.185Z,96183.13
2023-04-16T13:40:02.117Z,96194.89
2023-04-16T13:42:49.226Z,96200.95
2023-04-16T13:45:37.355Z,96193.52
2023-04-16T13:48:24.057Z,96191.56
2023-04-16T13:51:11.081Z,96194.20
2023-04-16T13:53:57.679Z,96191.76
2023-04-16T13:56:44.604Z,96189.31
2023-04-16T13:59:32.120Z,96200.87
2023-04-16T14:02:19.280Z,96202.27
2023-04-16T14:05:07.174Z,96203.39
2023-04-16T14:07:54.396Z,96199.16
2023-04-16T14:10:41.326Z,96197.05
2023-04-16T14:13:28.432Z,96199.65
2023-04-16T14:16:15.921Z,96200.08
2023-04-16T14:19:02.863Z,96207.11
2023-04-16T14:21:49.790Z,96209.84
2023-04-16T14:24:36.813Z,96214.19
2023-04-16T14:27:23.712Z,96216.95
2023-04-16T14:30:11.246Z,96214.65
2023-04-16T14:32:58.623Z,96211.83
2023-04-16T14:35:45.478Z,96217.95
2023-04-16T14:38:32.698Z,96218.91
2023-04-16T14:41:19.693Z,96215.57
2023-04-16T14:44:06.904Z,96209.66
2023-04-16T14:46:54.055Z,96208.95
2023-04-16T14:49:40.755Z,96210.23
2023-04-16T14:52:28.052Z,96210.60
2023-04-16T14:55:14.998Z,96207.84
2023-04-16T14:58:02.053Z,96209.40
2023-04-16T15:00:49.248Z,96211.60
2023-04-16T15:03:36.475Z,96208.79
2023-04-16T15:06:23.283Z,96207.75
2023-04-16T15:09:10.546Z,96205.02
2023-04-16T15:11:58.134Z,96204.27
2023-04-16T15:14:44.963Z,96207.54
2023-04-16T15:17:31.588Z,96210.60
2023-04-16T15:20:18.806Z,96206.34
2023-04-16T15:23:05.966Z,96205.18
2023-04-16T15:25:52.582Z,96203.19
2023-04-16T15:28:39.614Z,96209.27
2023-04-16T15:31:27.041Z,96221.33
2023-04-16T15:34:13.896Z,96231.96
2023-04-16T15:37:01.055Z,96238.70
2023-04-16T15:39:47.883Z,96247.43
2023-04-16T15:42:35.101Z,96244.45
2023-04-16T15:45:22.737Z,96235.67
2023-04-16T15:48:09.562Z,96234.52
2023-04-16T15:50:56.966Z,96237.32
2023-04-16T15:53:45.439Z,96235.66
2023-04-16T15:56:33.045Z,96233.48
2023-04-16T15:59:20.102Z,96233.73
2023-04-16T16:02:06.794Z,96229.52
2023-04-16T16:04:54.443Z,96226.20
2023-04-16T16:07:42.841Z,96227.73
2023-04-16T16:10:29.864Z,96228.18
2023-04-16T16:13:19.091Z,96234.18
2023-04-16T16:16:06.873Z,96229.09
2023-04-16T16:18:53.782Z,96225.94
2023-04-16T16:21:41.192Z,96226.31
2023-04-16T16:24:28.281Z,96227.13
2023-04-16T16:27:15.949Z,96225.77
2023-04-16T16:30:04.795Z,96225.97
2023-04-16T16:32:51.664Z,96225.92
2023-04-16T16:35:38.397Z,96221.05
2023-04-16T16:38:25.943Z,96220.73
2023-04-16T16:41:13.675Z,96220.09
2023-04-16T16:44:00.701Z,96223.52
2023-04-16T16:46:48.522Z,96222.50
2023-04-16T16:49:35.975Z,96225.07
2023-04-16T16:52:24.511Z,96222.79
2023-04-16T16:55:11.534Z,96223.41
2023-04-16T16:57:58.777Z,96225.30
2023-04-16T17:00:45.664Z,96226.09
2023-04-16T17:03:33.868Z,96224.93
2023-04-16T17:06:21.594Z,96227.52
2023-04-16T17:09:09.239Z,96231.04
2023-04-16T17:11:57.238Z,96236.73
2023-04-16T17:14:44.112Z,96248.13
2023-04-16T17:17:31.815Z,96249.28
2023-04-16T17:20:20.116Z,96250.23
2023-04-16T17:23:07.030Z,96254.23
2023-04-16T17:25:54.040Z,96261.15
2023-04-16T17:28:41.375Z,96263.85
2023-04-16T17:31:28.836Z,96268.94
2023-04-16T17:34:15.678Z,96269.76
2023-04-16T17:37:02.714Z,96275.42
2023-04-16T17:39:51.266Z,96277.12
2023-04-16T17:42:38.692Z,96276.49
2023-04-16T17:45:25.496Z,96279.34
2023-04-16T17:48:12.628Z,96280.29
2023-04-16T17:50:59.645Z,96281.58
2023-04-16T17:53:46.756Z,96285.08
2023-04-16T17:56:33.770Z,96284.45
2023-04-16T17:59:20.984Z,96288.84
2023-04-16T18:02:07.645Z,96286.61
2023-04-16T18:04:55.223Z,96289.83
2023-04-16T18:07:46.650Z,96291.91
2023-04-16T18:10:33.674Z,96295.72
2023-04-16T18:13:21.803Z,96297.79
2023-04-16T18:16:17.289Z,96297.16
2023-04-16T18:19:04.331Z,96299.73
2023-04-16T18:21:50.949Z,96303.73
2023-04-16T18:24:38.276Z,96301.37
2023-04-16T18:27:25.596Z,96299.80
2023-04-16T18:30:19.834Z,96304.59
2023-04-16T18:33:42.769Z,96307.60
2023-04-16T18:36:19.010Z,96305.77
2023-04-16T18:41:59.875Z,96307.80
2023-04-16T18:47:47.362Z,96313.30
2023-04-16T18:50:34.549Z,96316.55
2023-04-16T18:53:21.875Z,96317.51
2023-04-16T18:56:09.098Z,96318.98
2023-04-16T18:58:56.013Z,96320.90
2023-04-16T19:01:43.336Z,96322.06
2023-04-16T19:07:22.613Z,96323.11
2023-04-16T19:10:10.355Z,96321.77
2023-04-16T19:12:58.080Z,96324.57
2023-04-16T19:15:45.678Z,96323.41
2023-04-16T19:18:32.909Z,96323.66
2023-04-16T19:21:19.599Z,96323.57
2023-04-16T19:24:07.066Z,96322.95
2023-04-16T19:26:54.159Z,96322.31
2023-04-16T19:29:42.916Z,96322.02
2023-04-16T19:32:29.956Z,96322.10
2023-04-16T19:35:16.929Z,96322.38
2023-04-16T19:38:03.974Z,96320.27
2023-04-16T19:40:50.984Z,96317.26
2023-04-16T19:43:37.888Z,96312.80
2023-04-16T19:46:24.670Z,96314.33
2023-04-16T19:49:12.361Z,96313.84
2023-04-16T19:51:59.875Z,96313.21
2023-04-16T19:54:46.830Z,96314.90
2023-04-16T19:57:33.990Z,96312.33
2023-04-16T20:00:21.117Z,96315.23
2023-04-16T20:03:08.404Z,96317.90
2023-04-16T20:05:55.967Z,96315.49
2023-04-16T20:08:44.772Z,96313.42
2023-04-16T20:11:31.731Z,96312.34
2023-04-16T20:14:18.869Z,96307.79
2023-04-16T20:17:10.373Z,96305.02
2023-04-16T20:20:01.110Z,96307.98
2023-04-16T20:22:47.831Z,96309.71
2023-04-16T20:25:34.499Z,96305.88
2023-04-16T20:28:21.692Z,96305.60
2023-04-16T20:31:09.205Z,96303.27
2023-04-16T20:33:56.159Z,96306.75
2023-04-16T20:36:43.032Z,96299.23
2023-04-16T20:39:33.952Z,96300.50
2023-04-16T20:42:22.721Z,96301.69
2023-04-16T20:45:11.216Z,96301.60
2023-04-16T20:48:00.525Z,96304.15
2023-04-16T20:50:47.258Z,96305.19
2023-04-16T20:53:34.196Z,96310.10
2023-04-16T20:56:21.116Z,96307.57
2023-04-16T20:59:08.312Z,96306.77
2023-04-16T21:01:56.894Z,96306.83
2023-04-16T21:04:44.157Z,96308.55
2023-04-16T21:07:31.316Z,96307.91
2023-04-16T21:10:20.514Z,96302.27
2023-04-16T21:13:07.599Z,96302.15
2023-04-16T21:15:54.440Z,96299.19
2023-04-16T21:18:41.535Z,96297.44
2023-04-16T21:21:28.837Z,96294.13
2023-04-16T21:24:15.980Z,96296.31
2023-04-16T21:27:03.371Z,96297.38
2023-04-16T21:29:50.107Z,96295.52
2023-04-16T21:32:36.885Z,96294.47
2023-04-16T21:35:23.832Z,96295.16
2023-04-16T21:38:11.049Z,96293.39
2023-04-16T21:40:58.168Z,96292.92
2023-04-16T21:43:44.968Z,96290.82
2023-04-16T21:46:31.813Z,96290.02
2023-04-16T21:49:19.209Z,96288.50
2023-04-16T21:52:05.904Z,96285.00
2023-04-16T21:54:53.047Z,96281.86
2023-04-16T21:57:40.060Z,96282.97
2023-04-16T22:00:26.896Z,96285.03
2023-04-16T22:03:14.521Z,96284.36
2023-04-16T22:06:02.375Z,96285.60
2023-04-16T22:08:50.280Z,96283.54
2023-04-16T22:11:38.317Z,96284.52
2023-04-16T22:14:25.880Z,96283.61
2023-04-16T22:17:13.069Z,96280.17
2023-04-16T22:20:00.895Z,96280.05
2023-04-16T22:22:48.116Z,96280.83
2023-04-16T22:25:34.928Z,96281.07
2023-04-16T22:28:22.371Z,96278.88
2023-04-16T22:31:10.158Z,96275.85
2023-04-16T22:33:56.790Z,96278.12
2023-04-16T22:36:43.596Z,96276.38
2023-04-16T22:39:31.664Z,96273.31
2023-04-16T22:42:18.244Z,96273.73
2023-04-16T22:45:06.189Z,96271.98
2023-04-16T22:47:53.601Z,96271.70
2023-04-16T22:50:41.535Z,96271.26
2023-04-16T22:53:28.788Z,96267.91
2023-04-16T22:56:15.787Z,96270.48
2023-04-16T22:59:02.587Z,96267.13
2023-04-16T23:01:50.052Z,96264.14
2023-04-16T23:04:37.358Z,96258.15
2023-04-16T23:07:24.469Z,96257.15
2023-04-16T23:10:11.293Z,96258.64
2023-04-16T23:12:58.396Z,96261.19
2023-04-16T23:15:47.483Z,96260.36
2023-04-16T23:18:34.884Z,96254.52
2023-04-16T23:21:23.133Z,96256.73
2023-04-16T23:24:10.037Z,96250.39
2023-04-16T23:26:58.001Z,96251.20
2023-04-16T23:29:44.690Z,96246.41
2023-04-16T23:32:32.010Z,96244.01
2023-04-16T23:35:22.947Z,96241.48
2023-04-16T23:38:09.811Z,96237.61
2023-04-16T23:40:56.978Z,96239.10
2023-04-16T23:43:44.064Z,96237.23
2023-04-16T23:46:31.772Z,96233.02
2023-04-16T23:49:18.435Z,96236.48
2023-04-16T23:52:06.067Z,96238.00
2023-04-16T23:54:53.251Z,96236.55
2023-04-16T23:57:40.362Z,96234.52
